sensor_id;sensor_type;location;lat;lon;timestamp;P1;durP1;ratioP1;P2;durP2;ratioP2
67352;SDS011;54238;52.278;21.056;2023-06-26T00:02:11;20.90;;;11.30;;
67352;SDS011;54238;52.278;21.056;2023-06-26T00:04:38;22.10;;;11.80;;
67352;SDS011;54238;52.278;21.056;2023-06-26T00:07:05;19.00;;;11.20;;
67352;SDS011;54238;52.278;21.056;2023-06-26T00:09:37;16.10;;;12.40;;
67352;SDS011;54238;52.278;21.056;2023-06-26T00:12:08;14.30;;;11.20;;
67352;SDS011;54238;52.278;21.056;2023-06-26T00:14:35;19.00;;;12.20;;
67352;SDS011;54238;52.278;21.056;2023-06-26T00:17:04;17.40;;;11.50;;
67352;SDS011;54238;52.278;21.056;2023-06-26T00:19:31;16.00;;;12.00;;
67352;SDS011;54238;52.278;21.056;2023-06-26T00:21:57;18.20;;;11.10;;
67352;SDS011;54238;52.278;21.056;2023-06-26T00:24:24;15.20;;;11.50;;
67352;SDS011;54238;52.278;21.056;2023-06-26T00:26:50;16.30;;;11.70;;
67352;SDS011;54238;52.278;21.056;2023-06-26T00:29:21;16.90;;;11.30;;
67352;SDS011;54238;52.278;21.056;2023-06-26T00:31:50;14.00;;;10.90;;
67352;SDS011;54238;52.278;21.056;2023-06-26T00:34:19;18.20;;;11.10;;
67352;SDS011;54238;52.278;21.056;2023-06-26T00:36:45;15.40;;;11.10;;
67352;SDS011;54238;52.278;21.056;2023-06-26T00:39:11;17.00;;;12.20;;
67352;SDS011;54238;52.278;21.056;2023-06-26T00:41:41;17.70;;;12.30;;
67352;SDS011;54238;52.278;21.056;2023-06-26T00:44:13;16.70;;;11.60;;
67352;SDS011;54238;52.278;21.056;2023-06-26T00:46:41;15.60;;;11.10;;
67352;SDS011;54238;52.278;21.056;2023-06-26T00:49:10;15.80;;;11.00;;
67352;SDS011;54238;52.278;21.056;2023-06-26T00:51:42;16.90;;;10.80;;
67352;SDS011;54238;52.278;21.056;2023-06-26T00:54:09;14.70;;;10.90;;
67352;SDS011;54238;52.278;21.056;2023-06-26T00:56:39;15.10;;;10.80;;
67352;SDS011;54238;52.278;21.056;2023-06-26T00:59:10;16.50;;;11.50;;
67352;SDS011;54238;52.278;21.056;2023-06-26T01:01:39;16.00;;;11.40;;
67352;SDS011;54238;52.278;21.056;2023-06-26T01:04:08;16.20;;;10.70;;
67352;SDS011;54238;52.278;21.056;2023-06-26T01:06:46;18.00;;;10.60;;
67352;SDS011;54238;52.278;21.056;2023-06-26T01:09:19;15.30;;;11.50;;
67352;SDS011;54238;52.278;21.056;2023-06-26T01:11:54;15.30;;;11.60;;
67352;SDS011;54238;52.278;21.056;2023-06-26T01:14:25;15.30;;;11.70;;
67352;SDS011;54238;52.278;21.056;2023-06-26T01:16:54;17.00;;;10.50;;
67352;SDS011;54238;52.278;21.056;2023-06-26T01:19:29;16.80;;;11.50;;
67352;SDS011;54238;52.278;21.056;2023-06-26T01:27:50;13.90;;;10.40;;
67352;SDS011;54238;52.278;21.056;2023-06-26T01:30:21;14.30;;;11.30;;
67352;SDS011;54238;52.278;21.056;2023-06-26T01:32:54;15.60;;;11.20;;
67352;SDS011;54238;52.278;21.056;2023-06-26T01:35:26;18.80;;;11.20;;
67352;SDS011;54238;52.278;21.056;2023-06-26T01:38:20;15.00;;;11.10;;
67352;SDS011;54238;52.278;21.056;2023-06-26T01:40:50;18.60;;;12.60;;
67352;SDS011;54238;52.278;21.056;2023-06-26T01:46:23;16.20;;;11.50;;
67352;SDS011;54238;52.278;21.056;2023-06-26T01:49:06;18.90;;;11.50;;
67352;SDS011;54238;52.278;21.056;2023-06-26T01:51:45;15.30;;;11.30;;
67352;SDS011;54238;52.278;21.056;2023-06-26T01:54:54;15.20;;;11.70;;
67352;SDS011;54238;52.278;21.056;2023-06-26T01:57:22;18.30;;;11.70;;
67352;SDS011;54238;52.278;21.056;2023-06-26T01:59:56;18.40;;;10.80;;
67352;SDS011;54238;52.278;21.056;2023-06-26T02:02:29;15.10;;;11.70;;
67352;SDS011;54238;52.278;21.056;2023-06-26T02:04:59;16.20;;;11.20;;
67352;SDS011;54238;52.278;21.056;2023-06-26T02:07:26;18.70;;;12.30;;
67352;SDS011;54238;52.278;21.056;2023-06-26T02:09:57;13.60;;;11.80;;
67352;SDS011;54238;52.278;21.056;2023-06-26T02:12:29;14.70;;;11.30;;
67352;SDS011;54238;52.278;21.056;2023-06-26T02:14:56;15.30;;;10.50;;
67352;SDS011;54238;52.278;21.056;2023-06-26T02:17:25;18.30;;;11.10;;
67352;SDS011;54238;52.278;21.056;2023-06-26T02:19:55;21.90;;;10.80;;
67352;SDS011;54238;52.278;21.056;2023-06-26T02:22:25;18.70;;;10.20;;
67352;SDS011;54238;52.278;21.056;2023-06-26T02:24:55;14.70;;;11.00;;
67352;SDS011;54238;52.278;21.056;2023-06-26T02:27:22;16.00;;;11.60;;
67352;SDS011;54238;52.278;21.056;2023-06-26T02:29:49;14.20;;;10.90;;
67352;SDS011;54238;52.278;21.056;2023-06-26T02:32:19;15.60;;;10.90;;
67352;SDS011;54238;52.278;21.056;2023-06-26T02:34:53;14.90;;;10.40;;
67352;SDS011;54238;52.278;21.056;2023-06-26T02:37:23;14.50;;;10.20;;
67352;SDS011;54238;52.278;21.056;2023-06-26T02:42:22;22.70;;;11.00;;
67352;SDS011;54238;52.278;21.056;2023-06-26T02:44:49;24.10;;;12.00;;
67352;SDS011;54238;52.278;21.056;2023-06-26T02:47:19;22.10;;;12.40;;
67352;SDS011;54238;52.278;21.056;2023-06-26T02:49:48;18.10;;;11.70;;
67352;SDS011;54238;52.278;21.056;2023-06-26T02:52:20;18.80;;;12.20;;
67352;SDS011;54238;52.278;21.056;2023-06-26T02:54:54;17.90;;;12.80;;
67352;SDS011;54238;52.278;21.056;2023-06-26T02:57:24;17.40;;;12.00;;
67352;SDS011;54238;52.278;21.056;2023-06-26T02:59:53;19.60;;;11.80;;
67352;SDS011;54238;52.278;21.056;2023-06-26T03:02:20;17.80;;;11.60;;
67352;SDS011;54238;52.278;21.056;2023-06-26T03:04:50;14.90;;;12.40;;
67352;SDS011;54238;52.278;21.056;2023-06-26T03:07:20;15.40;;;12.20;;
67352;SDS011;54238;52.278;21.056;2023-06-26T03:09:52;18.30;;;11.60;;
67352;SDS011;54238;52.278;21.056;2023-06-26T03:12:20;18.30;;;12.40;;
67352;SDS011;54238;52.278;21.056;2023-06-26T03:14:47;17.30;;;11.60;;
67352;SDS011;54238;52.278;21.056;2023-06-26T03:17:16;14.40;;;12.10;;
67352;SDS011;54238;52.278;21.056;2023-06-26T03:19:46;19.90;;;12.40;;
67352;SDS011;54238;52.278;21.056;2023-06-26T03:22:13;15.00;;;11.50;;
67352;SDS011;54238;52.278;21.056;2023-06-26T03:24:43;18.90;;;13.10;;
67352;SDS011;54238;52.278;21.056;2023-06-26T03:27:11;18.60;;;12.50;;
67352;SDS011;54238;52.278;21.056;2023-06-26T03:29:43;14.60;;;12.00;;
67352;SDS011;54238;52.278;21.056;2023-06-26T03:32:10;18.50;;;11.40;;
67352;SDS011;54238;52.278;21.056;2023-06-26T03:34:40;14.60;;;11.10;;
67352;SDS011;54238;52.278;21.056;2023-06-26T03:37:09;14.40;;;11.10;;
67352;SDS011;54238;52.278;21.056;2023-06-26T03:39:42;15.60;;;11.30;;
67352;SDS011;54238;52.278;21.056;2023-06-26T03:42:09;16.80;;;12.20;;
67352;SDS011;54238;52.278;21.056;2023-06-26T03:44:39;15.80;;;11.90;;
67352;SDS011;54238;52.278;21.056;2023-06-26T03:47:10;13.70;;;10.70;;
67352;SDS011;54238;52.278;21.056;2023-06-26T03:49:40;16.30;;;11.30;;
67352;SDS011;54238;52.278;21.056;2023-06-26T03:52:12;16.80;;;11.60;;
67352;SDS011;54238;52.278;21.056;2023-06-26T03:54:39;17.30;;;11.70;;
67352;SDS011;54238;52.278;21.056;2023-06-26T03:57:08;19.60;;;12.10;;
67352;SDS011;54238;52.278;21.056;2023-06-26T03:59:38;16.30;;;11.50;;
67352;SDS011;54238;52.278;21.056;2023-06-26T04:02:11;16.20;;;11.30;;
67352;SDS011;54238;52.278;21.056;2023-06-26T04:04:42;18.20;;;11.30;;
67352;SDS011;54238;52.278;21.056;2023-06-26T04:07:16;16.50;;;11.90;;
67352;SDS011;54238;52.278;21.056;2023-06-26T04:09:48;17.20;;;12.20;;
67352;SDS011;54238;52.278;21.056;2023-06-26T04:12:15;19.00;;;11.40;;
67352;SDS011;54238;52.278;21.056;2023-06-26T04:14:43;17.80;;;11.40;;
67352;SDS011;54238;52.278;21.056;2023-06-26T04:17:10;15.70;;;11.50;;
67352;SDS011;54238;52.278;21.056;2023-06-26T04:19:37;17.40;;;11.90;;
67352;SDS011;54238;52.278;21.056;2023-06-26T04:22:11;16.40;;;12.50;;
67352;SDS011;54238;52.278;21.056;2023-06-26T04:24:40;17.10;;;12.50;;
67352;SDS011;54238;52.278;21.056;2023-06-26T04:27:10;14.90;;;11.00;;
67352;SDS011;54238;52.278;21.056;2023-06-26T04:29:40;16.50;;;12.60;;
67352;SDS011;54238;52.278;21.056;2023-06-26T04:32:10;15.50;;;12.00;;
67352;SDS011;54238;52.278;21.056;2023-06-26T04:34:43;18.60;;;12.30;;
67352;SDS011;54238;52.278;21.056;2023-06-26T04:37:13;18.00;;;12.00;;
67352;SDS011;54238;52.278;21.056;2023-06-26T04:39:44;22.60;;;11.80;;
67352;SDS011;54238;52.278;21.056;2023-06-26T04:42:11;25.00;;;11.70;;
67352;SDS011;54238;52.278;21.056;2023-06-26T04:44:41;22.10;;;10.50;;
67352;SDS011;54238;52.278;21.056;2023-06-26T04:47:10;23.30;;;10.70;;
67352;SDS011;54238;52.278;21.056;2023-06-26T04:49:40;24.30;;;10.40;;
67352;SDS011;54238;52.278;21.056;2023-06-26T04:52:13;23.00;;;10.50;;
67352;SDS011;54238;52.278;21.056;2023-06-26T04:54:43;26.10;;;11.20;;
67352;SDS011;54238;52.278;21.056;2023-06-26T04:57:15;24.30;;;12.00;;
67352;SDS011;54238;52.278;21.056;2023-06-26T04:59:46;36.10;;;16.60;;
67352;SDS011;54238;52.278;21.056;2023-06-26T05:02:14;33.00;;;13.10;;
67352;SDS011;54238;52.278;21.056;2023-06-26T05:04:43;36.70;;;11.80;;
67352;SDS011;54238;52.278;21.056;2023-06-26T05:07:11;19.60;;;11.20;;
67352;SDS011;54238;52.278;21.056;2023-06-26T05:09:38;29.90;;;10.60;;
67352;SDS011;54238;52.278;21.056;2023-06-26T05:12:08;26.50;;;12.80;;
67352;SDS011;54238;52.278;21.056;2023-06-26T05:14:38;27.50;;;11.00;;
67352;SDS011;54238;52.278;21.056;2023-06-26T05:17:10;24.60;;;11.00;;
67352;SDS011;54238;52.278;21.056;2023-06-26T05:19:41;27.10;;;12.10;;
67352;SDS011;54238;52.278;21.056;2023-06-26T05:22:08;24.40;;;11.60;;
67352;SDS011;54238;52.278;21.056;2023-06-26T05:24:37;18.20;;;11.30;;
67352;SDS011;54238;52.278;21.056;2023-06-26T05:27:11;17.70;;;10.10;;
67352;SDS011;54238;52.278;21.056;2023-06-26T05:29:52;18.80;;;10.30;;
67352;SDS011;54238;52.278;21.056;2023-06-26T05:32:20;19.50;;;9.90;;
67352;SDS011;54238;52.278;21.056;2023-06-26T05:34:51;31.90;;;12.70;;
67352;SDS011;54238;52.278;21.056;2023-06-26T05:37:21;21.60;;;10.60;;
67352;SDS011;54238;52.278;21.056;2023-06-26T05:39:51;20.80;;;9.80;;
67352;SDS011;54238;52.278;21.056;2023-06-26T05:42:21;21.10;;;9.50;;
67352;SDS011;54238;52.278;21.056;2023-06-26T05:44:51;17.20;;;9.90;;
67352;SDS011;54238;52.278;21.056;2023-06-26T05:47:18;31.90;;;9.20;;
67352;SDS011;54238;52.278;21.056;2023-06-26T05:49:47;21.10;;;10.20;;
67352;SDS011;54238;52.278;21.056;2023-06-26T05:52:17;25.00;;;9.00;;
67352;SDS011;54238;52.278;21.056;2023-06-26T05:54:49;16.30;;;8.10;;
67352;SDS011;54238;52.278;21.056;2023-06-26T05:57:19;15.90;;;7.80;;
67352;SDS011;54238;52.278;21.056;2023-06-26T05:59:49;16.50;;;7.60;;
67352;SDS011;54238;52.278;21.056;2023-06-26T06:02:19;11.10;;;7.50;;
67352;SDS011;54238;52.278;21.056;2023-06-26T06:04:51;15.00;;;7.50;;
67352;SDS011;54238;52.278;21.056;2023-06-26T06:07:18;13.90;;;8.30;;
67352;SDS011;54238;52.278;21.056;2023-06-26T06:09:53;16.40;;;7.70;;
67352;SDS011;54238;52.278;21.056;2023-06-26T06:12:27;22.20;;;8.50;;
67352;SDS011;54238;52.278;21.056;2023-06-26T06:14:55;15.00;;;7.50;;
67352;SDS011;54238;52.278;21.056;2023-06-26T06:17:27;16.50;;;7.00;;
67352;SDS011;54238;52.278;21.056;2023-06-26T06:20:00;13.80;;;7.00;;
67352;SDS011;54238;52.278;21.056;2023-06-26T06:22:29;16.00;;;6.50;;
67352;SDS011;54238;52.278;21.056;2023-06-26T06:25:02;12.80;;;6.90;;
67352;SDS011;54238;52.278;21.056;2023-06-26T06:27:32;10.20;;;6.90;;
67352;SDS011;54238;52.278;21.056;2023-06-26T06:30:04;9.70;;;6.40;;
67352;SDS011;54238;52.278;21.056;2023-06-26T06:32:31;10.40;;;6.80;;
67352;SDS011;54238;52.278;21.056;2023-06-26T06:35:03;12.00;;;6.90;;
67352;SDS011;54238;52.278;21.056;2023-06-26T06:37:41;11.30;;;6.30;;
67352;SDS011;54238;52.278;21.056;2023-06-26T06:40:11;9.10;;;6.00;;
67352;SDS011;54238;52.278;21.056;2023-06-26T06:42:44;8.60;;;6.40;;
67352;SDS011;54238;52.278;21.056;2023-06-26T06:45:13;8.00;;;5.50;;
67352;SDS011;54238;52.278;21.056;2023-06-26T06:47:42;9.30;;;6.50;;
67352;SDS011;54238;52.278;21.056;2023-06-26T06:50:09;11.40;;;5.90;;
67352;SDS011;54238;52.278;21.056;2023-06-26T06:52:43;10.90;;;5.60;;
67352;SDS011;54238;52.278;21.056;2023-06-26T06:55:12;11.70;;;5.50;;
67352;SDS011;54238;52.278;21.056;2023-06-26T06:57:40;7.70;;;5.40;;
67352;SDS011;54238;52.278;21.056;2023-06-26T07:00:14;5.90;;;4.80;;
67352;SDS011;54238;52.278;21.056;2023-06-26T07:02:49;12.80;;;5.00;;
67352;SDS011;54238;52.278;21.056;2023-06-26T07:05:21;6.60;;;4.50;;
67352;SDS011;54238;52.278;21.056;2023-06-26T07:07:54;6.30;;;5.10;;
67352;SDS011;54238;52.278;21.056;2023-06-26T07:10:21;8.10;;;4.40;;
67352;SDS011;54238;52.278;21.056;2023-06-26T07:12:48;7.00;;;4.90;;
67352;SDS011;54238;52.278;21.056;2023-06-26T07:15:18;9.00;;;5.30;;
67352;SDS011;54238;52.278;21.056;2023-06-26T07:17:45;5.50;;;4.50;;
67352;SDS011;54238;52.278;21.056;2023-06-26T07:20:17;7.50;;;4.50;;
67352;SDS011;54238;52.278;21.056;2023-06-26T07:22:45;10.20;;;4.80;;
67352;SDS011;54238;52.278;21.056;2023-06-26T07:25:12;11.60;;;4.50;;
67352;SDS011;54238;52.278;21.056;2023-06-26T07:27:42;7.70;;;5.10;;
67352;SDS011;54238;52.278;21.056;2023-06-26T07:30:10;6.80;;;4.50;;
67352;SDS011;54238;52.278;21.056;2023-06-26T07:32:40;12.90;;;4.90;;
67352;SDS011;54238;52.278;21.056;2023-06-26T07:35:12;7.40;;;4.70;;
67352;SDS011;54238;52.278;21.056;2023-06-26T07:37:46;5.70;;;4.60;;
67352;SDS011;54238;52.278;21.056;2023-06-26T07:40:15;6.20;;;4.60;;
67352;SDS011;54238;52.278;21.056;2023-06-26T07:42:50;7.00;;;4.70;;
67352;SDS011;54238;52.278;21.056;2023-06-26T07:45:20;6.40;;;4.50;;
67352;SDS011;54238;52.278;21.056;2023-06-26T07:47:47;9.90;;;5.00;;
67352;SDS011;54238;52.278;21.056;2023-06-26T07:50:15;7.20;;;5.40;;
67352;SDS011;54238;52.278;21.056;2023-06-26T07:52:49;8.40;;;5.50;;
67352;SDS011;54238;52.278;21.056;2023-06-26T07:55:24;8.30;;;5.40;;
67352;SDS011;54238;52.278;21.056;2023-06-26T07:57:55;5.10;;;4.60;;
67352;SDS011;54238;52.278;21.056;2023-06-26T08:00:27;4.70;;;4.20;;
67352;SDS011;54238;52.278;21.056;2023-06-26T08:02:56;6.30;;;4.60;;
67352;SDS011;54238;52.278;21.056;2023-06-26T08:05:24;8.30;;;4.80;;
67352;SDS011;54238;52.278;21.056;2023-06-26T08:07:51;6.70;;;5.30;;
67352;SDS011;54238;52.278;21.056;2023-06-26T08:10:19;5.20;;;4.70;;
67352;SDS011;54238;52.278;21.056;2023-06-26T08:12:51;6.50;;;5.40;;
67352;SDS011;54238;52.278;21.056;2023-06-26T08:15:20;8.80;;;4.70;;
67352;SDS011;54238;52.278;21.056;2023-06-26T08:17:49;5.20;;;4.00;;
67352;SDS011;54238;52.278;21.056;2023-06-26T08:20:19;7.40;;;4.30;;
67352;SDS011;54238;52.278;21.056;2023-06-26T08:22:47;8.40;;;4.20;;
67352;SDS011;54238;52.278;21.056;2023-06-26T08:25:15;5.20;;;4.40;;
67352;SDS011;54238;52.278;21.056;2023-06-26T08:27:43;5.60;;;4.10;;
67352;SDS011;54238;52.278;21.056;2023-06-26T08:30:15;4.70;;;4.10;;
67352;SDS011;54238;52.278;21.056;2023-06-26T08:32:47;7.30;;;4.40;;
67352;SDS011;54238;52.278;21.056;2023-06-26T08:35:17;8.60;;;4.40;;
67352;SDS011;54238;52.278;21.056;2023-06-26T08:37:47;5.60;;;3.90;;
67352;SDS011;54238;52.278;21.056;2023-06-26T08:40:17;8.30;;;4.90;;
67352;SDS011;54238;52.278;21.056;2023-06-26T08:42:47;6.40;;;4.30;;
67352;SDS011;54238;52.278;21.056;2023-06-26T08:45:22;7.30;;;4.10;;
67352;SDS011;54238;52.278;21.056;2023-06-26T08:47:55;7.40;;;4.20;;
67352;SDS011;54238;52.278;21.056;2023-06-26T08:50:30;7.90;;;4.20;;
67352;SDS011;54238;52.278;21.056;2023-06-26T08:56:03;9.80;;;4.90;;
67352;SDS011;54238;52.278;21.056;2023-06-26T09:01:07;6.50;;;4.10;;
67352;SDS011;54238;52.278;21.056;2023-06-26T09:06:08;5.00;;;4.30;;
67352;SDS011;54238;52.278;21.056;2023-06-26T09:08:38;4.20;;;3.80;;
67352;SDS011;54238;52.278;21.056;2023-06-26T09:11:08;9.60;;;4.10;;
67352;SDS011;54238;52.278;21.056;2023-06-26T09:13:37;4.50;;;4.10;;
67352;SDS011;54238;52.278;21.056;2023-06-26T09:16:10;3.90;;;3.50;;
67352;SDS011;54238;52.278;21.056;2023-06-26T09:18:37;4.80;;;3.80;;
67352;SDS011;54238;52.278;21.056;2023-06-26T09:21:10;7.30;;;4.30;;
67352;SDS011;54238;52.278;21.056;2023-06-26T09:26:11;6.60;;;3.90;;
67352;SDS011;54238;52.278;21.056;2023-06-26T09:28:43;5.30;;;3.40;;
67352;SDS011;54238;52.278;21.056;2023-06-26T09:31:13;4.30;;;3.80;;
67352;SDS011;54238;52.278;21.056;2023-06-26T09:33:40;4.70;;;3.80;;
67352;SDS011;54238;52.278;21.056;2023-06-26T09:36:20;9.10;;;4.20;;
67352;SDS011;54238;52.278;21.056;2023-06-26T09:38:52;4.10;;;3.70;;
67352;SDS011;54238;52.278;21.056;2023-06-26T09:41:22;4.60;;;4.00;;
67352;SDS011;54238;52.278;21.056;2023-06-26T09:43:51;5.20;;;4.00;;
67352;SDS011;54238;52.278;21.056;2023-06-26T09:48:58;5.60;;;3.70;;
67352;SDS011;54238;52.278;21.056;2023-06-26T09:51:31;4.20;;;3.50;;
67352;SDS011;54238;52.278;21.056;2023-06-26T09:54:08;4.60;;;3.30;;
67352;SDS011;54238;52.278;21.056;2023-06-26T09:56:38;7.50;;;3.20;;
67352;SDS011;54238;52.278;21.056;2023-06-26T09:59:06;5.80;;;3.70;;
67352;SDS011;54238;52.278;21.056;2023-06-26T10:01:47;5.10;;;3.80;;
67352;SDS011;54238;52.278;21.056;2023-06-26T10:04:18;4.30;;;3.80;;
67352;SDS011;54238;52.278;21.056;2023-06-26T10:06:46;6.80;;;3.90;;
67352;SDS011;54238;52.278;21.056;2023-06-26T10:09:19;5.70;;;4.10;;
67352;SDS011;54238;52.278;21.056;2023-06-26T10:12:01;4.70;;;3.40;;
67352;SDS011;54238;52.278;21.056;2023-06-26T10:17:09;6.50;;;3.70;;
67352;SDS011;54238;52.278;21.056;2023-06-26T10:19:44;5.60;;;3.80;;
67352;SDS011;54238;52.278;21.056;2023-06-26T10:22:21;5.90;;;3.60;;
67352;SDS011;54238;52.278;21.056;2023-06-26T10:25:00;5.10;;;3.80;;
67352;SDS011;54238;52.278;21.056;2023-06-26T10:27:36;4.30;;;3.30;;
67352;SDS011;54238;52.278;21.056;2023-06-26T10:30:14;3.80;;;3.20;;
67352;SDS011;54238;52.278;21.056;2023-06-26T10:32:47;5.20;;;3.40;;
67352;SDS011;54238;52.278;21.056;2023-06-26T10:35:20;4.10;;;3.40;;
67352;SDS011;54238;52.278;21.056;2023-06-26T10:37:50;6.80;;;3.20;;
67352;SDS011;54238;52.278;21.056;2023-06-26T10:40:22;4.70;;;3.70;;
67352;SDS011;54238;52.278;21.056;2023-06-26T10:43:09;5.20;;;3.60;;
67352;SDS011;54238;52.278;21.056;2023-06-26T10:45:48;6.50;;;3.10;;
67352;SDS011;54238;52.278;21.056;2023-06-26T10:48:24;6.20;;;3.30;;
67352;SDS011;54238;52.278;21.056;2023-06-26T10:51:15;5.20;;;3.50;;
67352;SDS011;54238;52.278;21.056;2023-06-26T10:53:42;3.70;;;3.10;;
67352;SDS011;54238;52.278;21.056;2023-06-26T10:56:17;6.20;;;3.60;;
67352;SDS011;54238;52.278;21.056;2023-06-26T10:58:49;4.20;;;3.30;;
67352;SDS011;54238;52.278;21.056;2023-06-26T11:01:19;8.20;;;3.20;;
67352;SDS011;54238;52.278;21.056;2023-06-26T11:06:32;9.60;;;3.60;;
67352;SDS011;54238;52.278;21.056;2023-06-26T11:14:22;4.90;;;3.70;;
67352;SDS011;54238;52.278;21.056;2023-06-26T11:16:58;4.40;;;3.10;;
67352;SDS011;54238;52.278;21.056;2023-06-26T11:19:27;13.00;;;3.60;;
67352;SDS011;54238;52.278;21.056;2023-06-26T11:22:02;11.70;;;3.40;;
67352;SDS011;54238;52.278;21.056;2023-06-26T11:24:32;6.60;;;4.20;;
67352;SDS011;54238;52.278;21.056;2023-06-26T11:27:02;4.70;;;3.50;;
67352;SDS011;54238;52.278;21.056;2023-06-26T11:29:31;5.50;;;3.40;;
67352;SDS011;54238;52.278;21.056;2023-06-26T11:32:03;7.30;;;3.30;;
67352;SDS011;54238;52.278;21.056;2023-06-26T11:34:34;5.00;;;3.20;;
67352;SDS011;54238;52.278;21.056;2023-06-26T11:37:02;5.90;;;3.70;;
67352;SDS011;54238;52.278;21.056;2023-06-26T11:39:31;4.70;;;3.10;;
67352;SDS011;54238;52.278;21.056;2023-06-26T11:41:59;5.20;;;2.80;;
67352;SDS011;54238;52.278;21.056;2023-06-26T11:44:31;5.00;;;2.70;;
67352;SDS011;54238;52.278;21.056;2023-06-26T11:47:15;3.40;;;3.10;;
67352;SDS011;54238;52.278;21.056;2023-06-26T11:49:47;5.40;;;3.80;;
67352;SDS011;54238;52.278;21.056;2023-06-26T11:52:16;4.00;;;3.00;;
67352;SDS011;54238;52.278;21.056;2023-06-26T11:54:45;3.80;;;3.40;;
67352;SDS011;54238;52.278;21.056;2023-06-26T11:57:14;6.90;;;3.50;;
67352;SDS011;54238;52.278;21.056;2023-06-26T11:59:49;5.80;;;3.00;;
67352;SDS011;54238;52.278;21.056;2023-06-26T12:04:50;4.90;;;3.00;;
67352;SDS011;54238;52.278;21.056;2023-06-26T12:07:22;3.90;;;2.90;;
67352;SDS011;54238;52.278;21.056;2023-06-26T12:09:50;3.70;;;2.90;;
67352;SDS011;54238;52.278;21.056;2023-06-26T12:12:20;8.50;;;3.40;;
67352;SDS011;54238;52.278;21.056;2023-06-26T12:14:51;3.40;;;3.00;;
67352;SDS011;54238;52.278;21.056;2023-06-26T12:17:22;4.40;;;3.30;;
67352;SDS011;54238;52.278;21.056;2023-06-26T12:19:51;4.30;;;2.80;;
67352;SDS011;54238;52.278;21.056;2023-06-26T12:22:33;3.10;;;2.70;;
67352;SDS011;54238;52.278;21.056;2023-06-26T12:25:01;3.80;;;3.40;;
67352;SDS011;54238;52.278;21.056;2023-06-26T12:27:29;5.10;;;3.30;;
67352;SDS011;54238;52.278;21.056;2023-06-26T12:29:56;5.90;;;3.10;;
67352;SDS011;54238;52.278;21.056;2023-06-26T12:32:26;3.90;;;3.00;;
67352;SDS011;54238;52.278;21.056;2023-06-26T12:34:58;4.00;;;2.80;;
67352;SDS011;54238;52.278;21.056;2023-06-26T12:37:27;5.30;;;3.20;;
67352;SDS011;54238;52.278;21.056;2023-06-26T12:39:57;5.20;;;2.90;;
67352;SDS011;54238;52.278;21.056;2023-06-26T12:42:28;8.00;;;3.10;;
67352;SDS011;54238;52.278;21.056;2023-06-26T12:45:10;4.40;;;2.90;;
67352;SDS011;54238;52.278;21.056;2023-06-26T12:47:44;4.10;;;3.00;;
67352;SDS011;54238;52.278;21.056;2023-06-26T12:50:12;5.20;;;3.20;;
67352;SDS011;54238;52.278;21.056;2023-06-26T12:52:41;4.10;;;3.10;;
67352;SDS011;54238;52.278;21.056;2023-06-26T12:55:13;3.80;;;3.40;;
67352;SDS011;54238;52.278;21.056;2023-06-26T12:57:45;3.40;;;2.90;;
67352;SDS011;54238;52.278;21.056;2023-06-26T13:00:19;5.50;;;3.40;;
67352;SDS011;54238;52.278;21.056;2023-06-26T13:02:50;6.20;;;3.10;;
67352;SDS011;54238;52.278;21.056;2023-06-26T13:05:20;8.10;;;3.30;;
67352;SDS011;54238;52.278;21.056;2023-06-26T13:07:49;4.20;;;3.70;;
67352;SDS011;54238;52.278;21.056;2023-06-26T13:10:20;6.80;;;3.90;;
67352;SDS011;54238;52.278;21.056;2023-06-26T13:12:48;4.50;;;3.30;;
67352;SDS011;54238;52.278;21.056;2023-06-26T13:15:15;8.40;;;3.70;;
67352;SDS011;54238;52.278;21.056;2023-06-26T13:17:45;6.50;;;4.60;;
67352;SDS011;54238;52.278;21.056;2023-06-26T13:20:12;3.90;;;3.50;;
67352;SDS011;54238;52.278;21.056;2023-06-26T13:22:42;4.60;;;3.70;;
67352;SDS011;54238;52.278;21.056;2023-06-26T13:25:18;6.00;;;4.00;;
67352;SDS011;54238;52.278;21.056;2023-06-26T13:27:46;7.10;;;4.20;;
67352;SDS011;54238;52.278;21.056;2023-06-26T13:30:16;5.50;;;3.70;;
67352;SDS011;54238;52.278;21.056;2023-06-26T13:32:44;4.70;;;3.80;;
67352;SDS011;54238;52.278;21.056;2023-06-26T13:35:11;5.80;;;3.70;;
67352;SDS011;54238;52.278;21.056;2023-06-26T13:37:40;4.40;;;3.40;;
67352;SDS011;54238;52.278;21.056;2023-06-26T13:40:08;6.10;;;3.80;;
67352;SDS011;54238;52.278;21.056;2023-06-26T13:42:38;4.20;;;3.40;;
67352;SDS011;54238;52.278;21.056;2023-06-26T13:45:08;7.50;;;3.20;;
67352;SDS011;54238;52.278;21.056;2023-06-26T13:47:41;7.40;;;3.80;;
67352;SDS011;54238;52.278;21.056;2023-06-26T13:50:09;5.60;;;3.30;;
67352;SDS011;54238;52.278;21.056;2023-06-26T13:52:39;10.20;;;3.20;;
67352;SDS011;54238;52.278;21.056;2023-06-26T13:55:06;5.00;;;3.60;;
67352;SDS011;54238;52.278;21.056;2023-06-26T13:57:36;7.80;;;3.60;;
67352;SDS011;54238;52.278;21.056;2023-06-26T14:00:09;6.10;;;4.10;;
67352;SDS011;54238;52.278;21.056;2023-06-26T14:02:39;11.10;;;3.40;;
67352;SDS011;54238;52.278;21.056;2023-06-26T14:05:06;4.80;;;3.80;;
67352;SDS011;54238;52.278;21.056;2023-06-26T14:07:38;5.20;;;3.30;;
67352;SDS011;54238;52.278;21.056;2023-06-26T14:10:10;5.20;;;3.60;;
67352;SDS011;54238;52.278;21.056;2023-06-26T14:12:37;3.90;;;3.30;;
67352;SDS011;54238;52.278;21.056;2023-06-26T14:15:09;7.20;;;3.80;;
67352;SDS011;54238;52.278;21.056;2023-06-26T14:17:39;5.80;;;3.30;;
67352;SDS011;54238;52.278;21.056;2023-06-26T14:20:11;5.50;;;3.30;;
67352;SDS011;54238;52.278;21.056;2023-06-26T14:22:42;4.90;;;4.10;;
67352;SDS011;54238;52.278;21.056;2023-06-26T14:25:13;6.90;;;4.00;;
67352;SDS011;54238;52.278;21.056;2023-06-26T14:27:41;7.00;;;3.30;;
67352;SDS011;54238;52.278;21.056;2023-06-26T14:30:09;3.90;;;3.30;;
67352;SDS011;54238;52.278;21.056;2023-06-26T14:32:37;5.70;;;3.00;;
67352;SDS011;54238;52.278;21.056;2023-06-26T14:35:07;4.60;;;3.30;;
67352;SDS011;54238;52.278;21.056;2023-06-26T14:37:37;9.30;;;5.70;;
67352;SDS011;54238;52.278;21.056;2023-06-26T14:40:07;4.20;;;3.40;;
67352;SDS011;54238;52.278;21.056;2023-06-26T14:42:40;4.50;;;3.50;;
67352;SDS011;54238;52.278;21.056;2023-06-26T14:45:10;4.30;;;3.00;;
67352;SDS011;54238;52.278;21.056;2023-06-26T14:47:44;3.50;;;3.10;;
67352;SDS011;54238;52.278;21.056;2023-06-26T14:50:19;3.50;;;3.20;;
67352;SDS011;54238;52.278;21.056;2023-06-26T14:52:49;4.60;;;3.40;;
67352;SDS011;54238;52.278;21.056;2023-06-26T14:55:18;3.90;;;2.90;;
67352;SDS011;54238;52.278;21.056;2023-06-26T14:57:47;4.00;;;3.60;;
67352;SDS011;54238;52.278;21.056;2023-06-26T15:00:19;5.90;;;3.40;;
67352;SDS011;54238;52.278;21.056;2023-06-26T15:02:48;5.20;;;3.30;;
67352;SDS011;54238;52.278;21.056;2023-06-26T15:05:21;4.50;;;3.40;;
67352;SDS011;54238;52.278;21.056;2023-06-26T15:07:51;4.00;;;3.60;;
67352;SDS011;54238;52.278;21.056;2023-06-26T15:10:18;5.60;;;3.40;;
67352;SDS011;54238;52.278;21.056;2023-06-26T15:12:51;5.00;;;3.20;;
67352;SDS011;54238;52.278;21.056;2023-06-26T15:15:24;4.60;;;3.20;;
67352;SDS011;54238;52.278;21.056;2023-06-26T15:17:53;6.50;;;3.50;;
67352;SDS011;54238;52.278;21.056;2023-06-26T15:20:20;4.60;;;3.60;;
67352;SDS011;54238;52.278;21.056;2023-06-26T15:22:55;3.80;;;3.40;;